Time;durP1;ratioP1;P1;durP2;ratioP2;P2;SDS_P1;SDS_P2;PMS_P1;PMS_P2;Temp;Humidity;BMP_temperature;BMP_pressure;BME280_temperature;BME280_humidity;BME280_pressure;Samples;Min_cycle;Max_cycle;Signal;HPM_P1;HPM_P2
2023/12/12 00:00:42;;;;;;;13.30;2.30;;;;;;;;;;5082916;28;20503;-77
2023/12/12 00:03:08;;;;;;;16.40;3.42;;;;;;;;;;5038426;28;20452;-77
2023/12/12 00:05:35;;;;;;;10.80;2.42;;;;;;;;;;5037018;28;20176;-77
2023/12/12 00:08:01;;;;;;;14.25;3.55;;;;;;;;;;5071998;28;20048;-77
2023/12/12 00:10:27;;;;;;;7.40;1.75;;;;;;;;;;5035175;28;20080;-77
2023/12/12 00:12:53;;;;;;;7.25;1.77;;;;;;;;;;5069393;28;20067;-76
2023/12/12 00:15:19;;;;;;;14.93;2.03;;;;;;;;;;5046202;28;20055;-77
2023/12/12 00:17:45;;;;;;;12.70;2.17;;;;;;;;;;5085216;28;20044;-77
2023/12/12 00:20:11;;;;;;;11.05;1.92;;;;;;;;;;5074620;28;20123;-77
2023/12/12 00:22:37;;;;;;;16.60;2.25;;;;;;;;;;5053868;28;20082;-77
2023/12/12 00:25:03;;;;;;;10.80;2.33;;;;;;;;;;5066231;28;20079;-77
2023/12/12 00:27:30;;;;;;;12.45;2.00;;;;;;;;;;5039249;28;20510;-77
2023/12/12 00:29:56;;;;;;;11.43;2.17;;;;;;;;;;5037340;28;20044;-77
2023/12/12 00:32:22;;;;;;;12.20;2.20;;;;;;;;;;5069679;28;20047;-77
2023/12/12 00:34:48;;;;;;;14.25;2.50;;;;;;;;;;5037716;28;20145;-77
2023/12/12 00:37:14;;;;;;;11.82;2.35;;;;;;;;;;5052278;28;20476;-77
2023/12/12 00:39:41;;;;;;;15.90;2.70;;;;;;;;;;5068518;28;20068;-77
2023/12/12 00:42:07;;;;;;;12.02;2.83;;;;;;;;;;5061347;28;20451;-77
2023/12/12 00:44:36;;;;;;;11.82;2.40;;;;;;;;;;5081540;28;20075;-76
2023/12/12 00:47:02;;;;;;;11.93;2.30;;;;;;;;;;5062909;28;20048;-77
2023/12/12 00:49:28;;;;;;;10.30;2.13;;;;;;;;;;5038355;28;20045;-76
2023/12/12 00:51:54;;;;;;;7.40;2.28;;;;;;;;;;5069556;28;20063;-76
2023/12/12 00:54:21;;;;;;;6.53;2.38;;;;;;;;;;5067745;28;20055;-76
2023/12/12 00:56:47;;;;;;;9.48;2.40;;;;;;;;;;5052354;28;20127;-76
2023/12/12 00:59:14;;;;;;;8.45;2.38;;;;;;;;;;5034454;28;20701;-76
2023/12/12 01:01:40;;;;;;;5.70;2.17;;;;;;;;;;5052657;28;20063;-76
2023/12/12 01:04:08;;;;;;;8.38;2.28;;;;;;;;;;5067011;28;20542;-76
2023/12/12 01:06:34;;;;;;;12.80;2.47;;;;;;;;;;5050771;28;20109;-76
2023/12/12 01:09:00;;;;;;;14.40;2.38;;;;;;;;;;5068528;28;20043;-76
2023/12/12 01:11:27;;;;;;;9.50;2.83;;;;;;;;;;5052751;28;20503;-76
2023/12/12 01:13:53;;;;;;;13.25;2.92;;;;;;;;;;5067269;28;20044;-76
2023/12/12 01:16:20;;;;;;;7.18;1.83;;;;;;;;;;5032914;28;20036;-76
2023/12/12 01:18:46;;;;;;;9.32;2.10;;;;;;;;;;5051457;28;20082;-76
2023/12/12 01:21:12;;;;;;;11.18;2.10;;;;;;;;;;5063237;28;20033;-76
2023/12/12 01:23:51;;;;;;;10.20;2.13;;;;;;;;;;5085643;28;20045;-76
2023/12/12 01:26:18;;;;;;;8.80;1.80;;;;;;;;;;5080359;28;20142;-76
2023/12/12 01:28:44;;;;;;;8.18;2.55;;;;;;;;;;5047706;28;20472;-76
2023/12/12 01:31:10;;;;;;;15.38;2.75;;;;;;;;;;5068302;28;20040;-76
2023/12/12 01:33:36;;;;;;;8.02;1.80;;;;;;;;;;5060892;28;20048;-76
2023/12/12 01:36:03;;;;;;;10.20;2.25;;;;;;;;;;5065265;28;20040;-77
2023/12/12 01:38:29;;;;;;;7.57;2.08;;;;;;;;;;5044587;28;20052;-77
2023/12/12 01:40:55;;;;;;;8.15;1.70;;;;;;;;;;5039564;28;20172;-77
2023/12/12 01:43:28;;;;;;;4.90;1.75;;;;;;;;;;5064744;28;20036;-77
2023/12/12 01:45:55;;;;;;;12.20;2.17;;;;;;;;;;5064754;28;20522;-76
2023/12/12 01:48:22;;;;;;;14.73;2.25;;;;;;;;;;5084000;28;20165;-76
2023/12/12 01:50:50;;;;;;;8.05;1.83;;;;;;;;;;5065128;28;20041;-76
2023/12/12 01:53:19;;;;;;;5.03;2.13;;;;;;;;;;5050843;28;20131;-76
2023/12/12 01:55:45;;;;;;;11.02;2.20;;;;;;;;;;5049101;28;20059;-76
2023/12/12 01:58:11;;;;;;;7.05;2.63;;;;;;;;;;5035314;28;20036;-76
2023/12/12 02:00:38;;;;;;;7.88;2.10;;;;;;;;;;5067474;28;20038;-76
2023/12/12 02:03:04;;;;;;;10.60;1.95;;;;;;;;;;5046290;28;20075;-77
2023/12/12 02:05:30;;;;;;;12.25;2.40;;;;;;;;;;5053953;28;20036;-76
2023/12/12 02:07:58;;;;;;;10.95;2.30;;;;;;;;;;5064854;28;20052;-76
2023/12/12 02:10:24;;;;;;;8.90;1.63;;;;;;;;;;5052388;28;20037;-76
2023/12/12 02:12:50;;;;;;;10.93;2.75;;;;;;;;;;5036782;28;20399;-75
2023/12/12 02:15:16;;;;;;;7.65;1.83;;;;;;;;;;5035184;28;20089;-76
2023/12/12 02:17:42;;;;;;;7.30;2.40;;;;;;;;;;5068424;28;20039;-76
2023/12/12 02:20:09;;;;;;;5.07;2.38;;;;;;;;;;5046341;28;20045;-75
2023/12/12 02:22:35;;;;;;;11.60;2.00;;;;;;;;;;5046161;28;20112;-76
2023/12/12 02:25:01;;;;;;;11.63;2.53;;;;;;;;;;5046687;28;20067;-76
2023/12/12 02:27:27;;;;;;;11.98;3.95;;;;;;;;;;5063346;28;20068;-76
2023/12/12 02:29:53;;;;;;;8.07;2.25;;;;;;;;;;5047369;28;20045;-80
2023/12/12 02:32:19;;;;;;;10.50;2.10;;;;;;;;;;5062789;28;20032;-77
2023/12/12 02:34:45;;;;;;;8.95;2.40;;;;;;;;;;5040292;28;20035;-77
2023/12/12 02:37:11;;;;;;;22.45;4.72;;;;;;;;;;5062906;28;20837;-77
2023/12/12 02:39:37;;;;;;;8.45;2.05;;;;;;;;;;5039685;28;20044;-76
2023/12/12 02:42:03;;;;;;;5.45;2.30;;;;;;;;;;5078722;28;20063;-77
2023/12/12 02:44:29;;;;;;;6.75;2.58;;;;;;;;;;5040918;28;20043;-76
2023/12/12 02:46:56;;;;;;;9.25;2.25;;;;;;;;;;5035296;28;20100;-77
2023/12/12 02:49:22;;;;;;;6.07;2.60;;;;;;;;;;5062549;28;20053;-77
2023/12/12 02:51:49;;;;;;;10.52;2.78;;;;;;;;;;5062918;28;20064;-77
2023/12/12 02:54:15;;;;;;;6.35;2.67;;;;;;;;;;5047552;28;20083;-77
2023/12/12 02:56:41;;;;;;;8.13;2.83;;;;;;;;;;5048938;28;20507;-77
2023/12/12 02:59:07;;;;;;;10.00;2.72;;;;;;;;;;5032117;28;20491;-77
2023/12/12 03:01:33;;;;;;;9.90;3.00;;;;;;;;;;5053389;28;20565;-75
2023/12/12 03:03:59;;;;;;;8.60;3.13;;;;;;;;;;5035167;28;20039;-76
2023/12/12 03:06:25;;;;;;;5.68;2.67;;;;;;;;;;5059231;28;20048;-76
2023/12/12 03:08:51;;;;;;;10.27;2.50;;;;;;;;;;5044375;28;20182;-76
2023/12/12 03:11:17;;;;;;;10.20;3.10;;;;;;;;;;5050187;28;20237;-76
2023/12/12 03:13:43;;;;;;;5.80;2.80;;;;;;;;;;5055247;28;20032;-76
2023/12/12 03:16:09;;;;;;;7.00;2.97;;;;;;;;;;5055352;28;20178;-76
2023/12/12 03:18:36;;;;;;;6.78;3.40;;;;;;;;;;5063495;28;20044;-76
2023/12/12 03:21:02;;;;;;;7.47;3.63;;;;;;;;;;5049509;28;21520;-76
2023/12/12 03:23:28;;;;;;;9.27;4.38;;;;;;;;;;5018072;28;20111;-77
2023/12/12 03:25:54;;;;;;;9.40;2.75;;;;;;;;;;5051953;28;20047;-77
2023/12/12 03:28:20;;;;;;;10.82;2.92;;;;;;;;;;5036671;28;20563;-77
2023/12/12 03:30:46;;;;;;;8.75;3.03;;;;;;;;;;5017863;28;20531;-77
2023/12/12 03:33:12;;;;;;;5.35;3.08;;;;;;;;;;5032865;28;20479;-77
2023/12/12 03:35:38;;;;;;;9.95;2.83;;;;;;;;;;5063282;28;20498;-77
2023/12/12 03:38:04;;;;;;;7.35;2.83;;;;;;;;;;5035209;28;20415;-78
2023/12/12 03:40:30;;;;;;;8.88;3.35;;;;;;;;;;5042124;28;20040;-78
2023/12/12 03:42:57;;;;;;;9.70;2.83;;;;;;;;;;5080302;28;20040;-78
2023/12/12 03:45:23;;;;;;;10.02;3.22;;;;;;;;;;5033508;28;20047;-77
2023/12/12 03:47:49;;;;;;;8.00;3.10;;;;;;;;;;5032220;28;20052;-78
2023/12/12 03:50:16;;;;;;;5.97;3.00;;;;;;;;;;5037033;28;20053;-78
2023/12/12 03:52:42;;;;;;;5.63;2.65;;;;;;;;;;5062830;28;20057;-77
2023/12/12 03:55:08;;;;;;;9.95;3.33;;;;;;;;;;5029709;28;20119;-77
2023/12/12 03:57:34;;;;;;;7.47;3.33;;;;;;;;;;5061685;28;20032;-78
2023/12/12 04:00:02;;;;;;;4.70;2.97;;;;;;;;;;5045766;28;20523;-78
2023/12/12 04:02:28;;;;;;;10.60;3.88;;;;;;;;;;5035345;28;20036;-77
2023/12/12 04:04:54;;;;;;;8.07;3.53;;;;;;;;;;5049680;28;20099;-78
2023/12/12 04:07:20;;;;;;;12.65;2.92;;;;;;;;;;5049950;28;20073;-78
2023/12/12 04:09:46;;;;;;;7.15;2.58;;;;;;;;;;5047054;28;20052;-77
2023/12/12 04:12:12;;;;;;;8.75;3.53;;;;;;;;;;5063545;28;20126;-78
2023/12/12 04:14:39;;;;;;;12.52;3.10;;;;;;;;;;5048592;28;20036;-77
2023/12/12 04:17:05;;;;;;;14.40;3.55;;;;;;;;;;5032359;28;20051;-78
2023/12/12 04:19:31;;;;;;;7.75;3.70;;;;;;;;;;5050743;28;20364;-77
2023/12/12 04:21:57;;;;;;;8.00;3.28;;;;;;;;;;5031233;28;20076;-78
2023/12/12 04:24:23;;;;;;;12.27;3.67;;;;;;;;;;5034576;28;20641;-78
2023/12/12 04:26:49;;;;;;;10.35;3.85;;;;;;;;;;5049802;28;20500;-77
2023/12/12 04:29:15;;;;;;;12.98;2.97;;;;;;;;;;5064112;28;20389;-78
2023/12/12 04:31:41;;;;;;;7.88;3.22;;;;;;;;;;5063625;28;20041;-77
2023/12/12 04:34:07;;;;;;;9.57;3.30;;;;;;;;;;5035875;28;20040;-77
2023/12/12 04:36:33;;;;;;;8.93;3.40;;;;;;;;;;5051298;28;20040;-77
2023/12/12 04:38:59;;;;;;;10.52;3.85;;;;;;;;;;5047975;28;20184;-78
2023/12/12 04:41:25;;;;;;;7.95;3.67;;;;;;;;;;5062692;28;20514;-78
2023/12/12 04:43:51;;;;;;;10.73;3.08;;;;;;;;;;5018921;28;20500;-78
2023/12/12 04:46:19;;;;;;;5.18;2.97;;;;;;;;;;5042028;28;20080;-77
2023/12/12 04:48:45;;;;;;;9.35;3.53;;;;;;;;;;5066806;28;20051;-77
2023/12/12 04:51:11;;;;;;;7.93;3.00;;;;;;;;;;5082555;28;20040;-76
2023/12/12 04:53:37;;;;;;;9.52;2.83;;;;;;;;;;5080627;28;20040;-76
2023/12/12 04:56:07;;;;;;;9.73;3.85;;;;;;;;;;5065890;28;20403;-76
2023/12/12 04:58:33;;;;;;;8.18;3.47;;;;;;;;;;5052535;28;20114;-76
2023/12/12 05:00:59;;;;;;;7.13;2.72;;;;;;;;;;5051037;28;20056;-76
2023/12/12 05:03:25;;;;;;;10.70;3.13;;;;;;;;;;5048948;28;20044;-76
2023/12/12 05:05:51;;;;;;;6.93;2.67;;;;;;;;;;5052825;28;20512;-75
2023/12/12 05:08:18;;;;;;;10.45;2.92;;;;;;;;;;5053801;28;20040;-75
2023/12/12 05:10:47;;;;;;;6.97;2.75;;;;;;;;;;5075321;28;20048;-75
2023/12/12 05:13:13;;;;;;;6.63;2.95;;;;;;;;;;5063642;28;20075;-76
2023/12/12 05:15:39;;;;;;;10.02;3.67;;;;;;;;;;5052994;28;20511;-76
2023/12/12 05:18:07;;;;;;;9.60;3.72;;;;;;;;;;5039278;28;20040;-76
2023/12/12 05:20:33;;;;;;;12.98;4.35;;;;;;;;;;5056169;28;20484;-77
2023/12/12 05:22:59;;;;;;;5.70;3.17;;;;;;;;;;5049286;28;20148;-77
2023/12/12 05:25:25;;;;;;;7.43;3.30;;;;;;;;;;5048177;28;20079;-77
2023/12/12 05:27:52;;;;;;;12.00;3.78;;;;;;;;;;5048042;28;20032;-77
2023/12/12 05:30:18;;;;;;;12.27;4.03;;;;;;;;;;5078990;28;20040;-76
2023/12/12 05:32:44;;;;;;;10.57;3.63;;;;;;;;;;5054887;28;20121;-76
2023/12/12 05:35:10;;;;;;;13.75;3.60;;;;;;;;;;5026668;28;20036;-76
2023/12/12 05:37:36;;;;;;;7.28;3.47;;;;;;;;;;5058586;28;20122;-76
2023/12/12 05:40:04;;;;;;;9.27;4.20;;;;;;;;;;5043911;28;20052;-76
2023/12/12 05:42:31;;;;;;;8.95;4.38;;;;;;;;;;5076798;28;20040;-76
2023/12/12 05:44:57;;;;;;;8.48;4.22;;;;;;;;;;5042231;28;20083;-76
2023/12/12 05:47:23;;;;;;;9.73;3.63;;;;;;;;;;5077291;28;20049;-77
2023/12/12 05:49:49;;;;;;;13.30;3.08;;;;;;;;;;5064692;28;20044;-77
2023/12/12 05:52:15;;;;;;;8.75;3.55;;;;;;;;;;5027173;28;20053;-75
2023/12/12 05:54:42;;;;;;;12.85;3.70;;;;;;;;;;5028494;28;20170;-77
2023/12/12 05:57:08;;;;;;;6.15;3.35;;;;;;;;;;5042789;28;20113;-77
2023/12/12 05:59:34;;;;;;;14.10;3.45;;;;;;;;;;5025725;28;20045;-76
2023/12/12 06:02:00;;;;;;;11.07;3.30;;;;;;;;;;5031939;28;20103;-77
2023/12/12 06:04:28;;;;;;;7.68;3.38;;;;;;;;;;5046558;28;20079;-77
2023/12/12 06:06:54;;;;;;;6.93;3.05;;;;;;;;;;5044203;28;20065;-77
2023/12/12 06:09:20;;;;;;;6.78;3.22;;;;;;;;;;5029949;28;20068;-77
2023/12/12 06:11:46;;;;;;;11.85;3.50;;;;;;;;;;5043934;28;20041;-76
2023/12/12 06:14:12;;;;;;;6.97;2.97;;;;;;;;;;5023375;28;20620;-77
2023/12/12 06:16:38;;;;;;;9.32;3.33;;;;;;;;;;5053946;28;20032;-76
2023/12/12 06:19:04;;;;;;;3.88;3.28;;;;;;;;;;5052292;28;20041;-76
2023/12/12 06:21:32;;;;;;;9.63;4.53;;;;;;;;;;5066409;28;20041;-76
2023/12/12 06:23:59;;;;;;;11.35;3.58;;;;;;;;;;5049224;28;20059;-77
2023/12/12 06:26:26;;;;;;;8.35;3.35;;;;;;;;;;5050638;28;20040;-76
2023/12/12 06:28:53;;;;;;;9.35;3.92;;;;;;;;;;5065440;28;20545;-77
2023/12/12 06:31:20;;;;;;;11.85;4.10;;;;;;;;;;5045086;28;20059;-76
2023/12/12 06:33:46;;;;;;;9.10;3.55;;;;;;;;;;5050945;28;20032;-76
2023/12/12 06:36:12;;;;;;;10.75;3.65;;;;;;;;;;5050424;28;20374;-77
2023/12/12 06:38:38;;;;;;;10.27;3.50;;;;;;;;;;5050992;28;20045;-77
2023/12/12 06:41:05;;;;;;;13.00;4.68;;;;;;;;;;5046100;28;20072;-77
2023/12/12 06:43:31;;;;;;;12.20;4.57;;;;;;;;;;5046447;28;20037;-76
2023/12/12 06:45:57;;;;;;;9.57;4.15;;;;;;;;;;5049759;28;20079;-76
2023/12/12 06:48:23;;;;;;;9.27;3.90;;;;;;;;;;5049517;28;20037;-77
2023/12/12 06:50:49;;;;;;;12.98;4.53;;;;;;;;;;5016793;28;20044;-78
2023/12/12 06:53:15;;;;;;;11.15;4.00;;;;;;;;;;5048807;28;20068;-77
2023/12/12 06:55:41;;;;;;;9.35;4.75;;;;;;;;;;5014293;28;20048;-77
2023/12/12 06:58:07;;;;;;;12.48;3.63;;;;;;;;;;5044031;28;20045;-77
2023/12/12 07:00:33;;;;;;;11.18;3.90;;;;;;;;;;5054072;28;20154;-77
2023/12/12 07:02:59;;;;;;;9.30;4.00;;;;;;;;;;5028798;28;20056;-77
2023/12/12 07:05:25;;;;;;;15.07;5.10;;;;;;;;;;5036613;28;20047;-78
2023/12/12 07:07:52;;;;;;;7.45;4.45;;;;;;;;;;5036846;28;20064;-77
2023/12/12 07:10:19;;;;;;;12.73;4.97;;;;;;;;;;5046725;28;20091;-77
2023/12/12 07:12:45;;;;;;;21.15;6.43;;;;;;;;;;5045947;28;20120;-78
2023/12/12 07:15:12;;;;;;;9.43;5.38;;;;;;;;;;5051011;28;20508;-77
2023/12/12 07:17:38;;;;;;;21.23;9.55;;;;;;;;;;5050605;28;20055;-77
2023/12/12 07:20:05;;;;;;;17.48;8.00;;;;;;;;;;5070383;28;20071;-77
2023/12/12 07:22:31;;;;;;;21.73;9.23;;;;;;;;;;5050032;28;20044;-77
2023/12/12 07:24:57;;;;;;;16.70;7.07;;;;;;;;;;5047890;28;20045;-78
2023/12/12 07:27:23;;;;;;;18.05;7.95;;;;;;;;;;5026247;28;20106;-78
2023/12/12 07:29:49;;;;;;;20.38;7.85;;;;;;;;;;5047111;28;20048;-78
2023/12/12 07:32:15;;;;;;;23.55;7.85;;;;;;;;;;5048380;28;20032;-78
2023/12/12 07:34:41;;;;;;;21.10;8.20;;;;;;;;;;5035185;28;20048;-78
2023/12/12 07:37:08;;;;;;;19.83;6.88;;;;;;;;;;5044946;28;20040;-79
2023/12/12 07:39:34;;;;;;;24.17;7.22;;;;;;;;;;5062878;28;20063;-79
2023/12/12 07:42:02;;;;;;;17.65;5.13;;;;;;;;;;5016618;28;20552;-79
2023/12/12 07:44:28;;;;;;;11.35;5.25;;;;;;;;;;5033200;28;20040;-78
2023/12/12 07:46:54;;;;;;;13.80;5.35;;;;;;;;;;5046752;28;20094;-79
2023/12/12 07:49:20;;;;;;;12.73;5.65;;;;;;;;;;5045332;28;20365;-78
2023/12/12 07:51:46;;;;;;;17.70;5.22;;;;;;;;;;5032671;28;20371;-78
2023/12/12 07:54:12;;;;;;;13.82;5.32;;;;;;;;;;5079809;28;20045;-78
2023/12/12 07:56:38;;;;;;;12.98;6.07;;;;;;;;;;5011779;28;20055;-78
2023/12/12 07:59:04;;;;;;;15.77;7.10;;;;;;;;;;5062271;28;20048;-78
2023/12/12 08:01:30;;;;;;;16.33;7.07;;;;;;;;;;5014636;28;20046;-77
2023/12/12 08:03:57;;;;;;;16.50;8.00;;;;;;;;;;5031684;28;20394;-77
2023/12/12 08:06:23;;;;;;;21.38;8.75;;;;;;;;;;5048681;28;20400;-79
2023/12/12 08:08:49;;;;;;;18.70;8.82;;;;;;;;;;5061316;28;20049;-78
2023/12/12 08:11:15;;;;;;;29.33;9.32;;;;;;;;;;5053363;28;20071;-78
2023/12/12 08:13:42;;;;;;;33.28;10.75;;;;;;;;;;5027912;28;20497;-78
2023/12/12 08:16:11;;;;;;;25.35;9.70;;;;;;;;;;5035020;28;20041;-78
2023/12/12 08:18:37;;;;;;;25.55;11.23;;;;;;;;;;5083489;28;20053;-77
2023/12/12 08:21:03;;;;;;;60.25;14.95;;;;;;;;;;5030969;28;20473;-77
2023/12/12 08:23:29;;;;;;;36.67;13.90;;;;;;;;;;5030550;28;20051;-76
2023/12/12 08:25:55;;;;;;;47.45;14.93;;;;;;;;;;5072019;28;20076;-77
2023/12/12 08:28:24;;;;;;;56.90;17.25;;;;;;;;;;5054072;28;20049;-77
2023/12/12 08:30:50;;;;;;;82.53;18.33;;;;;;;;;;5049386;28;20169;-77
2023/12/12 08:33:18;;;;;;;110.65;17.45;;;;;;;;;;5081378;28;20051;-77
2023/12/12 08:35:44;;;;;;;108.68;19.40;;;;;;;;;;5061680;28;20113;-77
2023/12/12 08:38:11;;;;;;;194.18;24.60;;;;;;;;;;5068054;28;20484;-77
2023/12/12 08:40:37;;;;;;;197.07;21.80;;;;;;;;;;5047736;28;20049;-76
2023/12/12 08:43:03;;;;;;;212.02;21.50;;;;;;;;;;5057527;28;20040;-77
2023/12/12 08:45:29;;;;;;;194.40;19.08;;;;;;;;;;5057994;28;20029;-76
2023/12/12 08:47:55;;;;;;;146.60;19.20;;;;;;;;;;5059278;28;20032;-75
2023/12/12 08:50:21;;;;;;;200.75;21.45;;;;;;;;;;5038334;28;20098;-75
2023/12/12 08:52:49;;;;;;;234.70;22.33;;;;;;;;;;5072875;28;20049;-75
2023/12/12 08:55:15;;;;;;;178.20;24.60;;;;;;;;;;5039690;28;20033;-75
2023/12/12 08:57:42;;;;;;;172.55;22.75;;;;;;;;;;5080728;28;20488;-77
2023/12/12 09:00:10;;;;;;;147.07;23.83;;;;;;;;;;5051539;28;20049;-77
2023/12/12 09:02:37;;;;;;;84.07;22.40;;;;;;;;;;5081905;28;20044;-77
2023/12/12 09:05:04;;;;;;;83.63;21.75;;;;;;;;;;5053796;28;20040;-76
2023/12/12 09:07:30;;;;;;;71.65;21.33;;;;;;;;;;5029581;28;20045;-77
2023/12/12 09:09:56;;;;;;;71.07;20.90;;;;;;;;;;5035414;28;20040;-76
2023/12/12 09:12:23;;;;;;;80.20;22.95;;;;;;;;;;5047883;28;20040;-77
2023/12/12 09:14:49;;;;;;;76.90;21.38;;;;;;;;;;5054745;28;20484;-76
2023/12/12 09:17:15;;;;;;;84.93;22.77;;;;;;;;;;5031203;28;20256;-77
2023/12/12 09:19:42;;;;;;;57.88;23.13;;;;;;;;;;5045564;28;20118;-77
2023/12/12 09:22:08;;;;;;;79.95;24.20;;;;;;;;;;5034952;28;20075;-77
2023/12/12 09:24:34;;;;;;;66.07;24.08;;;;;;;;;;5054662;28;20125;-77
2023/12/12 09:27:00;;;;;;;77.93;24.05;;;;;;;;;;5050834;28;20079;-77
2023/12/12 09:29:26;;;;;;;60.97;24.23;;;;;;;;;;5089210;28;20063;-76
2023/12/12 09:31:52;;;;;;;61.28;24.05;;;;;;;;;;5036019;28;20036;-76
2023/12/12 09:34:18;;;;;;;52.85;22.88;;;;;;;;;;5071687;28;20044;-76
2023/12/12 09:36:44;;;;;;;67.10;25.10;;;;;;;;;;5053443;28;20132;-76
2023/12/12 09:39:12;;;;;;;57.88;26.13;;;;;;;;;;5046441;28;20124;-76
2023/12/12 09:41:39;;;;;;;75.95;27.35;;;;;;;;;;5047445;28;20124;-75
2023/12/12 09:44:05;;;;;;;70.47;26.55;;;;;;;;;;5047207;28;20788;-76
2023/12/12 09:46:31;;;;;;;80.25;27.83;;;;;;;;;;5061168;28;20043;-75
2023/12/12 09:48:59;;;;;;;73.35;27.20;;;;;;;;;;5068346;28;20049;-75
2023/12/12 09:51:25;;;;;;;66.53;27.65;;;;;;;;;;5038858;28;20029;-76
2023/12/12 09:53:52;;;;;;;71.15;28.42;;;;;;;;;;5043798;28;20689;-76
2023/12/12 09:56:18;;;;;;;75.00;29.58;;;;;;;;;;5070185;28;20076;-76
2023/12/12 09:58:46;;;;;;;70.85;29.10;;;;;;;;;;5060873;28;20051;-76
2023/12/12 10:01:13;;;;;;;70.38;28.25;;;;;;;;;;5071349;28;20058;-76
2023/12/12 10:03:39;;;;;;;79.60;29.05;;;;;;;;;;5053819;28;20114;-76
2023/12/12 10:06:08;;;;;;;90.75;30.92;;;;;;;;;;5055291;28;20076;-77
2023/12/12 10:08:35;;;;;;;107.50;30.38;;;;;;;;;;5042126;28;20082;-76
2023/12/12 10:11:02;;;;;;;103.03;28.88;;;;;;;;;;5070391;28;20388;-76
2023/12/12 10:13:28;;;;;;;83.22;28.42;;;;;;;;;;5046699;28;20053;-75
2023/12/12 10:15:54;;;;;;;135.45;29.52;;;;;;;;;;5036963;28;20454;-77
2023/12/12 10:18:22;;;;;;;168.65;30.02;;;;;;;;;;5042504;28;20036;-76
2023/12/12 10:20:49;;;;;;;146.27;29.92;;;;;;;;;;5068432;28;20049;-75
2023/12/12 10:23:16;;;;;;;164.70;30.75;;;;;;;;;;5065229;28;20059;-76
2023/12/12 10:25:49;;;;;;;120.45;30.63;;;;;;;;;;5067844;28;20085;-77
2023/12/12 10:28:15;;;;;;;105.65;29.85;;;;;;;;;;5053640;28;20102;-76
2023/12/12 10:30:43;;;;;;;174.38;31.70;;;;;;;;;;5053953;28;20037;-76
2023/12/12 10:33:14;;;;;;;442.98;38.47;;;;;;;;;;5055017;28;20056;-76
2023/12/12 10:35:45;;;;;;;501.73;41.53;;;;;;;;;;5039847;28;20076;-76
2023/12/12 10:38:11;;;;;;;494.33;44.85;;;;;;;;;;5054936;28;20048;-76
2023/12/12 10:40:37;;;;;;;547.22;49.90;;;;;;;;;;5041226;28;20532;-78
2023/12/12 10:43:05;;;;;;;757.88;55.88;;;;;;;;;;5084253;28;20999;-78
2023/12/12 10:45:31;;;;;;;706.25;55.97;;;;;;;;;;5039680;28;20067;-78
2023/12/12 10:47:58;;;;;;;713.75;59.30;;;;;;;;;;5060170;28;20650;-78
2023/12/12 10:50:27;;;;;;;660.47;52.55;;;;;;;;;;5036032;28;20507;-78
2023/12/12 10:52:53;;;;;;;838.17;60.10;;;;;;;;;;5057161;28;20102;-78
2023/12/12 10:55:20;;;;;;;659.03;50.10;;;;;;;;;;5041584;28;20465;-77
2023/12/12 10:57:47;;;;;;;677.72;49.75;;;;;;;;;;5058651;28;20460;-77
2023/12/12 11:00:14;;;;;;;487.45;43.25;;;;;;;;;;5065340;28;20048;-77
2023/12/12 11:02:44;;;;;;;585.47;45.15;;;;;;;;;;5069475;28;20478;-77
2023/12/12 11:05:14;;;;;;;629.88;49.55;;;;;;;;;;5054025;28;20036;-77
2023/12/12 11:07:41;;;;;;;697.45;51.15;;;;;;;;;;5053998;28;20040;-77
2023/12/12 11:10:08;;;;;;;686.30;55.72;;;;;;;;;;5052225;28;20036;-77
2023/12/12 11:12:36;;;;;;;589.20;47.00;;;;;;;;;;5046740;28;20434;-76
2023/12/12 11:15:05;;;;;;;609.42;47.63;;;;;;;;;;5070554;28;20098;-76
2023/12/12 11:17:31;;;;;;;626.55;50.30;;;;;;;;;;5054749;28;20428;-77
2023/12/12 11:19:57;;;;;;;496.60;41.80;;;;;;;;;;5042113;28;20068;-77
2023/12/12 11:22:42;;;;;;;436.88;41.35;;;;;;;;;;5071276;28;20460;-77
2023/12/12 11:25:10;;;;;;;466.42;45.55;;;;;;;;;;5052411;28;20045;-77
2023/12/12 11:27:40;;;;;;;352.95;39.42;;;;;;;;;;5021865;28;20561;-81
2023/12/12 11:30:06;;;;;;;411.48;39.30;;;;;;;;;;5065805;28;20037;-83
2023/12/12 11:32:36;;;;;;;469.05;47.63;;;;;;;;;;5051680;28;20076;-78
2023/12/12 11:35:08;;;;;;;442.95;41.63;;;;;;;;;;5045080;28;20041;-78
2023/12/12 11:37:41;;;;;;;504.40;46.10;;;;;;;;;;5063021;28;20075;-76
2023/12/12 11:40:09;;;;;;;517.00;48.47;;;;;;;;;;5061699;28;20554;-76
2023/12/12 11:42:35;;;;;;;445.33;42.97;;;;;;;;;;5052647;28;20127;-76
2023/12/12 11:45:02;;;;;;;428.55;47.08;;;;;;;;;;5048156;28;20058;-77
2023/12/12 11:47:32;;;;;;;411.63;43.25;;;;;;;;;;5054210;28;20040;-77
2023/12/12 11:50:19;;;;;;;393.67;41.45;;;;;;;;;;5053629;28;20472;-76
2023/12/12 11:52:45;;;;;;;437.75;45.95;;;;;;;;;;5065919;28;20053;-76
2023/12/12 11:55:36;;;;;;;408.88;45.03;;;;;;;;;;5072259;28;20109;-76
2023/12/12 11:58:05;;;;;;;420.65;45.42;;;;;;;;;;5056907;28;20051;-76
2023/12/12 12:00:32;;;;;;;411.00;43.55;;;;;;;;;;5057990;28;20040;-76
2023/12/12 12:02:58;;;;;;;341.25;42.97;;;;;;;;;;5071928;28;20044;-76
2023/12/12 12:05:24;;;;;;;466.88;47.70;;;;;;;;;;5069168;28;20048;-76
2023/12/12 12:07:50;;;;;;;383.23;45.08;;;;;;;;;;5054091;28;20066;-76
2023/12/12 12:10:16;;;;;;;375.92;42.45;;;;;;;;;;5078740;28;20054;-77
2023/12/12 12:12:55;;;;;;;422.48;44.58;;;;;;;;;;5043410;28;20032;-77
2023/12/12 12:15:22;;;;;;;560.78;53.42;;;;;;;;;;5063080;28;20041;-77
2023/12/12 12:17:48;;;;;;;499.77;49.05;;;;;;;;;;5071795;28;20040;-78
2023/12/12 12:20:23;;;;;;;689.65;59.53;;;;;;;;;;5035018;28;20024;-77
2023/12/12 12:22:49;;;;;;;413.88;45.65;;;;;;;;;;5084466;28;20047;-77
2023/12/12 12:25:21;;;;;;;519.58;53.78;;;;;;;;;;5068336;28;20090;-77
2023/12/12 12:27:49;;;;;;;439.50;48.97;;;;;;;;;;5058665;28;20048;-77
2023/12/12 12:30:15;;;;;;;530.85;50.63;;;;;;;;;;5081303;28;20155;-77
2023/12/12 12:32:56;;;;;;;434.08;47.00;;;;;;;;;;5056214;28;20044;-78
2023/12/12 12:35:22;;;;;;;384.30;45.10;;;;;;;;;;5063990;28;20047;-77
2023/12/12 12:37:48;;;;;;;412.80;49.80;;;;;;;;;;5066740;28;20040;-78
2023/12/12 12:40:30;;;;;;;424.88;48.58;;;;;;;;;;5045475;28;20040;-76
2023/12/12 12:42:56;;;;;;;424.95;44.97;;;;;;;;;;5036334;28;20119;-76
2023/12/12 12:45:24;;;;;;;424.73;51.10;;;;;;;;;;5054864;28;20036;-77
2023/12/12 12:47:50;;;;;;;466.90;53.97;;;;;;;;;;5057107;28;20075;-77
2023/12/12 12:50:16;;;;;;;414.27;48.30;;;;;;;;;;5085775;28;20102;-78
2023/12/12 12:52:42;;;;;;;464.98;50.03;;;;;;;;;;5036466;28;20045;-77
2023/12/12 12:55:09;;;;;;;423.83;47.60;;;;;;;;;;5050462;28;20048;-77
2023/12/12 12:57:36;;;;;;;461.63;49.30;;;;;;;;;;5042148;28;20046;-77
2023/12/12 13:00:02;;;;;;;383.23;49.60;;;;;;;;;;5059282;28;20055;-78
2023/12/12 13:02:28;;;;;;;384.40;46.15;;;;;;;;;;5069724;28;20040;-78
2023/12/12 13:04:54;;;;;;;399.25;51.58;;;;;;;;;;5081389;28;20037;-78
2023/12/12 13:07:21;;;;;;;400.17;50.10;;;;;;;;;;5055682;28;20045;-78
2023/12/12 13:09:47;;;;;;;378.73;46.83;;;;;;;;;;5059840;28;20052;-78
2023/12/12 13:12:13;;;;;;;342.90;43.75;;;;;;;;;;5047217;28;20036;-77
2023/12/12 13:14:42;;;;;;;434.35;51.97;;;;;;;;;;5055411;28;20101;-77
2023/12/12 13:17:11;;;;;;;507.88;59.97;;;;;;;;;;5054870;28;20040;-77
2023/12/12 13:19:37;;;;;;;526.40;54.20;;;;;;;;;;5058148;28;20076;-79
2023/12/12 13:22:03;;;;;;;465.42;54.92;;;;;;;;;;5055102;28;20640;-78
2023/12/12 13:24:29;;;;;;;412.77;52.38;;;;;;;;;;5069425;28;20036;-78
2023/12/12 13:26:55;;;;;;;438.50;53.35;;;;;;;;;;5055476;28;20048;-78
2023/12/12 13:29:21;;;;;;;492.38;57.08;;;;;;;;;;5061511;28;20072;-78
2023/12/12 13:31:47;;;;;;;402.75;50.47;;;;;;;;;;5054848;28;20127;-78
2023/12/12 13:34:13;;;;;;;448.50;56.28;;;;;;;;;;5030621;28;20105;-76
2023/12/12 13:36:41;;;;;;;479.67;54.95;;;;;;;;;;5057618;28;20028;-78
2023/12/12 13:39:12;;;;;;;414.25;54.40;;;;;;;;;;5054390;28;20052;-77
2023/12/12 13:41:43;;;;;;;350.98;45.78;;;;;;;;;;5067118;28;20041;-78
2023/12/12 13:44:10;;;;;;;399.50;52.30;;;;;;;;;;5072328;28;20364;-77
2023/12/12 13:46:36;;;;;;;416.17;53.72;;;;;;;;;;5052057;28;20450;-78
2023/12/12 13:49:02;;;;;;;393.80;56.17;;;;;;;;;;5083593;28;20134;-77
2023/12/12 13:51:28;;;;;;;485.50;60.17;;;;;;;;;;5070460;28;20043;-78
2023/12/12 13:53:55;;;;;;;435.10;57.35;;;;;;;;;;5070301;28;20455;-78
2023/12/12 13:56:21;;;;;;;380.40;53.78;;;;;;;;;;5067243;28;20546;-78
2023/12/12 13:58:47;;;;;;;380.92;58.03;;;;;;;;;;5057232;28;20041;-78
2023/12/12 14:01:13;;;;;;;326.70;53.60;;;;;;;;;;5060735;28;20051;-77
2023/12/12 14:03:39;;;;;;;329.40;58.58;;;;;;;;;;5052300;28;20131;-78
2023/12/12 14:06:05;;;;;;;346.95;61.47;;;;;;;;;;5073942;28;20032;-78
2023/12/12 14:08:31;;;;;;;328.25;55.80;;;;;;;;;;5065905;28;20037;-77
2023/12/12 14:10:57;;;;;;;304.02;55.88;;;;;;;;;;5046532;28;20041;-78
2023/12/12 14:13:23;;;;;;;261.23;54.78;;;;;;;;;;5027623;28;20071;-77
2023/12/12 14:15:49;;;;;;;246.65;54.95;;;;;;;;;;5051908;28;20043;-77
2023/12/12 14:18:15;;;;;;;235.77;51.83;;;;;;;;;;5037376;28;20047;-75
2023/12/12 14:20:41;;;;;;;293.63;58.78;;;;;;;;;;5048524;28;20036;-76